Pine Mountain Club, California
Current Conditions -  °F | °C
As of 1:48 AM on Sunday 26 Oct 2014 (Local Time) from KSDB Reporting Station
Clear Clear  
Wind Chill: 50°   Ceiling: Unl
Heat Index: 50°   Visibility: 10mi
Dew Point: 44°   Wind: 22mph
Humidity: 80%   Direction: 330°NNW
Pressure: 30.13"   Gusts: NA
Location:  34.9441°N, 119.155°W
Report Text: KSDB 260848Z AUTO 33019KT 10SM CLR 10/07 A3013 RMK AO2 PK WND 33027/0819 SLP162 T01000067 56006
Loading
Personal Weather Stations






























Interactive Weather Map
Tropical Storm Tracking
New forecast layout! Learn more

10-Day Weather Forecast

Advertisements
Track Severe Weather on mobile